NCAR-RAP Real-Time Weather Data

Output produced by METARs form (10 April 2020  06:25 UTC)
found at http://weather.rap.ucar.edu/surface/
 
KPIR 100553Z AUTO 16005KT 10SM CLR M03/M10 A3015 RMK AO2 SLP227 T10331100 10039 21050 400501050 56015
KPIR 100453Z AUTO 12004KT 10SM CLR M05/M10 A3015 RMK AO2 SLP230 T10501100
KPIR 100353Z AUTO 16005KT 10SM CLR M04/M11 A3019 RMK AO2 SLP242 T10391106
KPIR 100253Z AUTO 06005KT 10SM CLR M04/M11 A3019 RMK AO2 SLP245 T10441106 58002
KPIR 100153Z AUTO 02004KT 10SM CLR M01/M11 A3020 RMK AO2 SLP245 T10061106
KPIR 100053Z AUTO 01004KT 10SM CLR 02/M11 A3020 RMK AO2 SLP242 T00171106
KPIR 092353Z AUTO 01009KT 10SM CLR 04/M12 A3020 RMK AO2 SLP242 T00391117 10050 20022 56007
KPIR 092253Z AUTO 36016G20KT 10SM CLR 04/M12 A3021 RMK AO2 SLP244 T00441117
KPIR 092153Z AUTO 01014G25KT 10SM CLR 04/M12 A3021 RMK AO2 PK WND 36026/2126 SLP244 T00391122
KPIR 092053Z AUTO 36015KT 10SM CLR 04/M12 A3022 RMK AO2 PK WND 36031/2030 SLP249 T00391117 58004
KPIR 091953Z AUTO 33018G28KT 10SM CLR 03/M12 A3024 RMK AO2 PK WND 32030/1856 SLP255 T00331122
KPIR 091753Z AUTO 33023G31KT 10SM CLR 02/M13 A3024 RMK AO2 PK WND 33038/1659 SLP255 60000 T00221128 10022 20000 51021
KPIR 091653Z AUTO 34028G42KT 10SM SCT042 02/M11 A3022 RMK AO2 PK WND 33042/1648 SLP251 T00171111
KPIR 091553Z AUTO 34020G33KT 10SM FEW027 SCT034 BKN050 01/M08 A3021 RMK AO2 PK WND 34039/1511 UPB30E37 SLP245 P0000 T00061078
KPIR 091353Z AUTO 32027G36KT 10SM FEW050 00/M09 A3015 RMK AO2 PK WND 32036/1351 SLP224 T00001089
KPIR 091253Z AUTO 31024G34KT 10SM CLR 01/M08 A3013 RMK AO2 PK WND 32034/1248 SLP215 T00061083
KPIR 091153Z AUTO 31018G29KT 10SM CLR 01/M08 A3010 RMK AO2 PK WND 31031/1119 SLP203 T00061078 10022 20006 53012
KPIR 091053Z AUTO 30019G30KT 10SM CLR 01/M07 A3008 RMK AO2 PK WND 30030/1046 SLP194 T00111072
KPIR 090953Z AUTO 29017G24KT 10SM SCT075 02/M07 A3007 RMK AO2 PK WND 29026/0921 SLP190 T00171067
KPIR 090853Z AUTO 28014G21KT 10SM CLR 02/M07 A3006 RMK AO2 SLP187 T00171067 58002
KPIR 090753Z AUTO 28011KT 10SM CLR 01/M07 A3007 RMK AO2 SLP193 T00061067